DRI Storm Peak Lab. Weather observations

Data are for 5 minute period ending at time listed.
 Day   Time    Ave.   Ave.  Ave.  Vector  Max.   Total    Baro.    Solar      Aerosol      Ave.  Ultrafine   Snow  
  of    of     Air    Rel.  Wind   Wind   Wind  Precip.   Pres.  Radiation   Aerosol      Ozone   Aerosol    Depth 
Year   Day     Temp.  Hum.  Speed  Dir.   Gust                               Ave.   Max.            Ave.           
2017   (MST)    F      %     mph   deg.    mph    in.      mb.     w/m2         #/cm3      ppbv    #/cm3      in.  
-------------------------------------------------------------------------------------------------------------------
  22   17:55    9.8    96   17.0   184    22.3   999.00    682.3    999.0    999000   999000   999.0    999000   999.0
  22   18:00    9.8    96   16.9   184    21.3   999.00    682.4    999.0    999000   999000   999.0    999000   999.0
  22   18:05    9.8    96   16.1   186    20.2   999.00    682.4    999.0    999000   999000   999.0    999000   999.0
  22   18:10    9.8    96   14.8   182    19.7   999.00    682.3    999.0    999000   999000   999.0    999000   999.0
  22   18:15    9.8    96   13.6   184    17.4   999.00    682.3    999.0    999000   999000   999.0    999000   999.0
  22   18:20    9.9    96   16.4   187    20.4   999.00    682.2    999.0    999000   999000   999.0    999000   999.0
  22   18:25    9.9    96   13.4   189    20.6   999.00    682.2    999.0    999000   999000   999.0    999000   999.0
  22   18:30    9.9    96   11.2   192    18.2   999.00    682.2    999.0    999000   999000   999.0    999000   999.0
  22   18:35   10.0    96   10.6   196    18.4   999.00    682.2    999.0    999000   999000   999.0    999000   999.0
  22   18:40   10.2    96   10.3   197    14.3   999.00    682.1    999.0    999000   999000   999.0    999000   999.0
  22   18:45   10.2    96    9.4   199    13.2   999.00    682.1    999.0    999000   999000   999.0    999000   999.0
  22   18:50   10.3    96   13.4   197    17.1   999.00    682.1    999.0    999000   999000   999.0    999000   999.0
  22   18:55   10.2    96    8.9   198    13.5   999.00    682.0    999.0    999000   999000   999.0    999000   999.0
  22   19:00   10.3    96    6.4   199     9.4   999.00    682.0    999.0    999000   999000   999.0    999000   999.0
  22   19:05   10.3    96    2.8   199     8.9   999.00    682.0    999.0    999000   999000   999.0    999000   999.0
  22   19:10   10.3    96    3.7   198     9.1   999.00    681.9    999.0    999000   999000   999.0    999000   999.0
  22   19:15   10.3    96    7.0   195    13.3   999.00    681.7    999.0    999000   999000   999.0    999000   999.0
  22   19:20   10.4    96    5.7   193    14.4   999.00    681.7    999.0    999000   999000   999.0    999000   999.0
  22   19:25   10.5    96   13.3   192    17.2   999.00    681.8    999.0    999000   999000   999.0    999000   999.0
  22   19:30   10.4    96    9.0   190    13.5   999.00    681.6    999.0    999000   999000   999.0    999000   999.0
  22   19:35   10.4    96   10.7   190    16.1   999.00    681.7    999.0    999000   999000   999.0    999000   999.0
  22   19:40   10.4    96   10.1   189    13.9   999.00    681.7    999.0    999000   999000   999.0    999000   999.0
  22   19:45   10.4    96    9.2   185    15.0   999.00    681.6    999.0    999000   999000   999.0    999000   999.0
  22   19:50   10.4    96    9.1   181    14.8   999.00    681.6    999.0    999000   999000   999.0    999000   999.0
  22   19:55   10.4    96   13.7   170    18.0   999.00    681.4    999.0    999000   999000   999.0    999000   999.0
  22   20:00   10.4    96   10.8   160    15.2   999.00    681.2    999.0    999000   999000   999.0    999000   999.0
  22   20:05   10.4    96   10.0   156    15.0   999.00    681.1    999.0    999000   999000   999.0    999000   999.0
  22   20:10   10.4    96   12.4   154    16.1   999.00    681.1    999.0    999000   999000   999.0    999000   999.0
  22   20:15   10.4    96   12.7   157    15.4   999.00    681.0    999.0    999000   999000   999.0    999000   999.0
  22   20:20   10.5    96   12.1   157    15.0   999.00    680.7    999.0    999000   999000   999.0    999000   999.0
  22   20:25   10.5    96   12.8   159    16.3   999.00    680.6    999.0    999000   999000   999.0    999000   999.0
  22   20:30   10.6    96   13.0   158    14.8   999.00    680.3    999.0    999000   999000   999.0    999000   999.0
  22   20:35   10.6    96   13.8   159    16.7   999.00    680.3    999.0    999000   999000   999.0    999000   999.0
  22   20:40   10.6    96   14.3   167    18.0   999.00    680.5    999.0    999000   999000   999.0    999000   999.0
  22   20:45   10.8    97   12.3   166    19.1   999.00    680.6    999.0    999000   999000   999.0    999000   999.0
  22   20:50   10.9    97   14.6   161    18.5   999.00    680.4    999.0    999000   999000   999.0    999000   999.0
  22   20:55   11.0    97   15.8   163    20.8   999.00    680.3    999.0    999000   999000   999.0    999000   999.0
  22   21:00   11.1    97   16.3   161    20.6   999.00    680.2    999.0    999000   999000   999.0    999000   999.0
  22   21:05   11.2    97   18.6   153    23.4   999.00    680.1    999.0    999000   999000   999.0    999000   999.0
  22   21:10   11.3    97   20.2   145    26.4   999.00    679.8    999.0    999000   999000   999.0    999000   999.0
  22   21:15   11.5    97   19.2   147    25.2   999.00    679.8    999.0    999000   999000   999.0    999000   999.0
  22   21:20   11.7    97   21.9   140    26.4   999.00    679.7    999.0    999000   999000   999.0    999000   999.0
  22   21:25   11.8    97   20.1   144    28.0   999.00    679.7    999.0    999000   999000   999.0    999000   999.0
  22   21:30   11.8    97   20.3   142    26.0   999.00    679.6    999.0    999000   999000   999.0    999000   999.0
  22   21:35   11.8    97   20.0   142    25.8   999.00    679.5    999.0    999000   999000   999.0    999000   999.0
  22   21:40   11.9    97   18.5   146    23.0   999.00    679.5    999.0    999000   999000   999.0    999000   999.0
  22   21:45   12.0    97   14.4   155    18.2   999.00    679.5    999.0    999000   999000   999.0    999000   999.0
  22   21:50   12.3    98   14.0   160    21.1   999.00    679.5    999.0    999000   999000   999.0    999000   999.0
  22   21:55   12.6    98   14.9   166    19.9   999.00    679.6    999.0    999000   999000   999.0    999000   999.0
  22   22:00   12.8    98   14.4   179    17.2   999.00    679.6    999.0    999000   999000   999.0    999000   999.0
  22   22:05   12.8    98   14.8   165    19.7   999.00    679.5    999.0    999000   999000   999.0    999000   999.0
  22   22:10   12.8    98   15.9   166    19.5   999.00    679.4    999.0    999000   999000   999.0    999000   999.0
  22   22:15   12.8    98   16.4   166    21.1   999.00    679.3    999.0    999000   999000   999.0    999000   999.0
  22   22:20   12.8    98   17.4   164    20.4   999.00    679.4    999.0    999000   999000   999.0    999000   999.0
  22   22:25   12.8    98   15.3   162    19.1   999.00    679.4    999.0    999000   999000   999.0    999000   999.0
  22   22:30   12.9    98   14.6   161    18.7   999.00    679.4    999.0    999000   999000   999.0    999000   999.0
  22   22:35   12.8    98   12.5   159    17.4   999.00    679.4    999.0    999000   999000   999.0    999000   999.0
  22   22:40   12.7    98   13.4   157    16.1   999.00    679.3    999.0    999000   999000   999.0    999000   999.0
  22   22:45   12.7    98   11.9   159    15.0   999.00    679.4    999.0    999000   999000   999.0    999000   999.0
  22   22:50   12.7    98   11.4   158    13.9   999.00    679.4    999.0    999000   999000   999.0    999000   999.0
  22   22:55   12.7    98   11.9   161    15.4   999.00    679.3    999.0    999000   999000   999.0    999000   999.0
  22   23:00   12.8    98   11.8   163    15.6   999.00    679.2    999.0    999000   999000   999.0    999000   999.0
  22   23:05   12.9    98   10.9   162    14.3   999.00    679.2    999.0    999000   999000   999.0    999000   999.0
  22   23:10   12.8    98   13.9   161    16.9   999.00    679.0    999.0    999000   999000   999.0    999000   999.0
  22   23:15   12.6    98   12.8   161    17.6   999.00    679.0    999.0    999000   999000   999.0    999000   999.0
  22   23:20   12.6    97   11.7   160    13.5   999.00    678.9    999.0    999000   999000   999.0    999000   999.0
  22   23:25   12.6    97   11.8   160    15.8   999.00    678.8    999.0    999000   999000   999.0    999000   999.0
  22   23:30   12.5    97   12.2   160    17.2   999.00    678.8    999.0    999000   999000   999.0    999000   999.0
  22   23:35   12.6    98    6.6   161    13.3   999.00    678.8    999.0    999000   999000   999.0    999000   999.0
  22   23:40   12.5    97    7.7   161    10.6   999.00    678.7    999.0    999000   999000   999.0    999000   999.0
  22   23:45   12.6    98    4.3   161    10.6   999.00    678.7    999.0    999000   999000   999.0    999000   999.0
  22   23:50   12.7    98    1.8   162     2.4   999.00    678.8    999.0    999000   999000   999.0    999000   999.0
  22   23:55   12.8    98    1.9   163     3.5   999.00    678.7    999.0    999000   999000   999.0    999000   999.0
  23    0:00   12.8    98    2.9   167    11.5   999.00    678.7    999.0    999000   999000   999.0    999000   999.0
  23    0:05   12.9    98    6.1   173    12.6   999.00    678.7    999.0    999000   999000   999.0    999000   999.0
  23    0:10   13.0    98    7.9   185    13.3   999.00    678.6    999.0    999000   999000   999.0    999000   999.0
  23    0:15   13.1    98    7.7   190    13.9   999.00    678.7    999.0    999000   999000   999.0    999000   999.0
  23    0:20   13.2    98    8.3   190    15.4   999.00    678.6    999.0    999000   999000   999.0    999000   999.0
  23    0:25   13.3    98    9.5   190    13.3   999.00    678.6    999.0    999000   999000   999.0    999000   999.0
  23    0:30   13.3    98    8.2   191    13.7   999.00    678.5    999.0    999000   999000   999.0    999000   999.0
  23    0:35   13.3    98   10.5   192    16.3   999.00    678.5    999.0    999000   999000   999.0    999000   999.0
  23    0:40   13.3    98    9.6   193    16.3   999.00    678.5    999.0    999000   999000   999.0    999000   999.0
  23    0:45   13.4    98   10.2   194    15.9   999.00    678.4    999.0    999000   999000   999.0    999000   999.0
  23    0:50   13.4    98    9.8   198    17.8   999.00    678.4    999.0    999000   999000   999.0    999000   999.0
  23    0:55   13.5    98   10.8   197    15.9   999.00    678.3    999.0    999000   999000   999.0    999000   999.0
  23    1:00   13.6    98    6.6   201    15.2   999.00    678.2    999.0    999000   999000   999.0    999000   999.0
  23    1:05   13.7    98    6.5   205    17.2   999.00    678.2    999.0    999000   999000   999.0    999000   999.0
  23    1:10   13.9    98   10.5   204    16.7   999.00    678.1    999.0    999000   999000   999.0    999000   999.0
  23    1:15   14.0    98   10.0   204    21.5   999.00    677.9    999.0    999000   999000   999.0    999000   999.0
  23    1:20   14.1    99    8.1   205    15.4   999.00    678.0    999.0    999000   999000   999.0    999000   999.0
  23    1:25   14.2    99    6.9   210    14.3   999.00    678.1    999.0    999000   999000   999.0    999000   999.0
  23    1:30   14.3    99    9.1   216    18.4   999.00    678.1    999.0    999000   999000   999.0    999000   999.0
  23    1:35   14.4    99    8.2   221    14.3   999.00    678.1    999.0    999000   999000   999.0    999000   999.0
  23    1:40   14.5    99   13.2   228    19.5   999.00    678.1    999.0    999000   999000   999.0    999000   999.0
  23    1:45   14.6    99   10.2   230    16.5   999.00    678.0    999.0    999000   999000   999.0    999000   999.0
  23    1:50   14.6    99    9.0   230    15.9   999.00    678.0    999.0    999000   999000   999.0    999000   999.0
  23    1:55   14.6    99    5.0   229    12.8   999.00    677.9    999.0    999000   999000   999.0    999000   999.0
  23    2:00   14.5    99   10.0   231    13.7   999.00    678.0    999.0    999000   999000   999.0    999000   999.0
  23    2:05   14.6    99    6.8   233    12.6   999.00    677.9    999.0    999000   999000   999.0    999000   999.0
  23    2:10   14.5    99    2.3   232     7.6   999.00    677.9    999.0    999000   999000   999.0    999000   999.0
  23    2:15   14.6    99   11.7   235    17.2   999.00    677.9    999.0    999000   999000   999.0    999000   999.0
  23    2:20   14.5    99   11.6   238    14.6   999.00    677.9    999.0    999000   999000   999.0    999000   999.0
  23    2:25   14.4    99   12.4   236    20.2   999.00    677.9    999.0    999000   999000   999.0    999000   999.0
  23    2:30   14.6    99   14.9   228    26.5   999.00    677.7    999.0    999000   999000   999.0    999000   999.0
  23    2:35   15.1    99   18.7   237    36.2   999.00    677.6    999.0    999000   999000   999.0    999000   999.0
  23    2:40   15.5   100   15.2   207    28.8   999.00    677.6    999.0    999000   999000   999.0    999000   999.0
  23    2:45   15.7   100   15.1   208    23.0   999.00    677.6    999.0    999000   999000   999.0    999000   999.0
  23    2:50   15.8   100   17.5   210    24.3   999.00    677.6    999.0    999000   999000   999.0    999000   999.0
  23    2:55   16.0   100   15.3   214    26.0   999.00    677.6    999.0    999000   999000   999.0    999000   999.0
  23    3:00   15.8    99   16.8   214    26.0   999.00    677.6    999.0    999000   999000   999.0    999000   999.0
  23    3:05   15.7    99   16.4   218    25.6   999.00    677.6    999.0    999000   999000   999.0    999000   999.0
  23    3:10   15.6    99   17.5   220    26.0   999.00    677.6    999.0    999000   999000   999.0    999000   999.0
  23    3:15   15.5    99   15.6   222    22.3   999.00    677.6    999.0    999000   999000   999.0    999000   999.0
  23    3:20   15.5    99   19.0   227    26.2   999.00    677.7    999.0    999000   999000   999.0    999000   999.0
  23    3:25   15.4    99   15.4   224    23.6   999.00    677.7    999.0    999000   999000   999.0    999000   999.0
  23    3:30   15.2    99   13.2   223    18.7   999.00    677.7    999.0    999000   999000   999.0    999000   999.0
  23    3:35   15.2    99   16.9   222    28.6   999.00    677.6    999.0    999000   999000   999.0    999000   999.0
  23    3:40   15.3    99   14.5   216    23.4   999.00    677.5    999.0    999000   999000   999.0    999000   999.0
  23    3:45   15.4    99   14.2   214    23.4   999.00    677.4    999.0    999000   999000   999.0    999000   999.0
  23    3:50   15.4    99   20.4   225    26.5   999.00    677.4    999.0    999000   999000   999.0    999000   999.0
  23    3:55   15.4    99   21.0   230    29.5   999.00    677.3    999.0    999000   999000   999.0    999000   999.0
  23    4:00   15.4    99   22.9   234    29.7   999.00    677.3    999.0    999000   999000   999.0    999000   999.0
  23    4:05   15.4    99   21.9   237    28.2   999.00    677.3    999.0    999000   999000   999.0    999000   999.0
  23    4:10   15.4    99   19.8   235    27.7   999.00    677.3    999.0    999000   999000   999.0    999000   999.0
  23    4:15   15.3    99   24.6   240    32.0   999.00    677.2    999.0    999000   999000   999.0    999000   999.0
  23    4:20   15.2    99   25.0   245    29.5   999.00    677.1    999.0    999000   999000   999.0    999000   999.0
  23    4:25   15.3    99   27.1   246    34.2   999.00    676.9    999.0    999000   999000   999.0    999000   999.0
  23    4:30   15.2    99   31.4   246    42.4   999.00    676.9    999.0    999000   999000   999.0    999000   999.0
  23    4:35   15.2    99   29.9   251    38.8   999.00    676.9    999.0    999000   999000   999.0    999000   999.0
  23    4:40   15.2    99   25.5   257    35.5   999.00    676.9    999.0    999000   999000   999.0    999000   999.0
  23    4:45   15.0    99   25.5   257    33.4   999.00    676.9    999.0    999000   999000   999.0    999000   999.0
  23    4:50   15.1    99   18.2   263    23.8   999.00    676.8    999.0    999000   999000   999.0    999000   999.0
  23    4:55   14.9    99   24.4   264    31.0   999.00    676.7    999.0    999000   999000   999.0    999000   999.0
  23    5:00   14.8    99   18.9   282    26.0   999.00    676.6    999.0    999000   999000   999.0    999000   999.0
  23    5:05   14.8    99   24.9   261    33.1   999.00    676.5    999.0    999000   999000   999.0    999000   999.0
  23    5:10   14.9    99   26.2   258    36.2   999.00    676.5    999.0    999000   999000   999.0    999000   999.0
  23    5:15   15.2    99   27.5   259    38.3   999.00    676.5    999.0    999000   999000   999.0    999000   999.0
  23    5:20   15.3    99   26.1   256    34.9   999.00    676.4    999.0    999000   999000   999.0    999000   999.0
  23    5:25   15.5    99   26.9   255    37.2   999.00    676.5    999.0    999000   999000   999.0    999000   999.0
  23    5:30   15.6    99   24.8   256    31.2   999.00    676.5    999.0    999000   999000   999.0    999000   999.0
  23    5:35   15.5    99   23.6   256    31.0   999.00    676.6    999.0    999000   999000   999.0    999000   999.0
  23    5:40   15.6    99   19.9   255    26.2   999.00    676.6    999.0    999000   999000   999.0    999000   999.0
  23    5:45   15.6    99   17.5   254    24.0   999.00    676.6    999.0    999000   999000   999.0    999000   999.0
  23    5:50   15.4    99   18.6   253    24.1   999.00    676.6    999.0    999000   999000   999.0    999000   999.0
  23    5:55   15.4    99   15.2   250    20.0   999.00    676.5    999.0    999000   999000   999.0    999000   999.0
  23    6:00   15.4    99   15.7   248    21.5   999.00    676.4    999.0    999000   999000   999.0    999000   999.0
  23    6:05   15.5    99   13.6   246    19.5   999.00    676.4    999.0    999000   999000   999.0    999000   999.0
  23    6:10   15.5    99   15.3   240    21.9   999.00    676.3    999.0    999000   999000   999.0    999000   999.0
  23    6:15   15.5    99   16.5   230    23.6   999.00    676.3    999.0    999000   999000   999.0    999000   999.0
  23    6:20   15.7    99   18.6   231    24.0   999.00    676.2    999.0    999000   999000   999.0    999000   999.0
  23    6:25   15.7    99   20.7   239    27.1   999.00    676.2    999.0    999000   999000   999.0    999000   999.0
  23    6:30   15.8    99   21.0   240    26.9   999.00    676.2    999.0    999000   999000   999.0    999000   999.0
  23    6:35   15.8   100   22.0   248    28.0   999.00    676.2    999.0    999000   999000   999.0    999000   999.0
  23    6:40   15.9   100   24.7   253    30.1   999.00    676.1    999.0    999000   999000   999.0    999000   999.0
  23    6:45   16.0   100   24.1   253    29.9   999.00    676.1    999.0    999000   999000   999.0    999000   999.0
  23    6:50   16.1   100   21.0   249    25.2   999.00    676.1    999.0    999000   999000   999.0    999000   999.0
  23    6:55   16.0   100   19.8   249    24.7   999.00    676.2    999.0    999000   999000   999.0    999000   999.0
  23    7:00   16.0   100   18.1   248    23.6   999.00    676.2    999.0    999000   999000   999.0    999000   999.0
  23    7:05   16.0   100   20.3   254    29.0   999.00    676.0    999.0    999000   999000   999.0    999000   999.0
  23    7:10   15.9   100   21.4   258    26.9   999.00    676.1    999.0    999000   999000   999.0    999000   999.0
  23    7:15   16.1   100   21.1   262    26.7   999.00    676.2    999.0    999000   999000   999.0    999000   999.0
  23    7:20   16.2   100   20.1   252    26.0   999.00    676.2    999.0    999000   999000   999.0    999000   999.0
  23    7:25   16.2   100   17.1   249    23.2   999.00    676.2    999.0    999000   999000   999.0    999000   999.0
  23    7:30   16.2   100   17.6   245    22.6   999.00    676.2    999.0    999000   999000   999.0    999000   999.0
  23    7:35   16.2   100   12.9   239    18.4   999.00    676.2    999.0    999000   999000   999.0    999000   999.0
  23    7:40   16.3   100   12.2   232    19.5   999.00    676.2    999.0    999000   999000   999.0    999000   999.0
  23    7:45   16.4   100   14.2   224    23.2   999.00    676.1    999.0    999000   999000   999.0    999000   999.0
  23    7:50   16.6   100   17.4   229    25.4   999.00    676.1    999.0    999000   999000   999.0    999000   999.0
  23    7:55   16.8   100   17.6   237    24.0   999.00    676.1    999.0    999000   999000   999.0    999000   999.0
  23    8:00   16.9   100   19.1   246    27.3   999.00    676.1    999.0    999000   999000   999.0    999000   999.0
  23    8:05   17.0   100   20.8   245    25.6   999.00    676.2    999.0    999000   999000   999.0    999000   999.0
  23    8:10   17.0   100   20.0   244    25.2   999.00    676.2    999.0    999000   999000   999.0    999000   999.0
  23    8:15   16.9   100   19.8   240    27.7   999.00    676.2    999.0    999000   999000   999.0    999000   999.0
  23    8:20   16.9   100   20.5   244    26.4   999.00    676.1    999.0    999000   999000   999.0    999000   999.0
  23    8:25   16.9   100   18.7   243    26.2   999.00    676.2    999.0    999000   999000   999.0    999000   999.0
  23    8:30   16.9   100   20.7   243    26.9   999.00    676.1    999.0    999000   999000   999.0    999000   999.0
  23    8:35   17.0   100   22.3   244    26.4   999.00    676.2    999.0    999000   999000   999.0    999000   999.0
  23    8:40   17.0   100   22.1   246    28.2   999.00    676.2    999.0    999000   999000   999.0    999000   999.0
  23    8:45   17.0   100   21.8   247    28.6   999.00    676.1    999.0    999000   999000   999.0    999000   999.0
  23    8:50   17.1   100   21.2   246    29.3   999.00    676.2    999.0    999000   999000   999.0    999000   999.0
  23    8:55   17.1   100   23.6   252    30.3   999.00    676.2    999.0    999000   999000   999.0    999000   999.0
  23    9:00   17.1   100   22.3   254    31.0   999.00    676.3    999.0    999000   999000   999.0    999000   999.0
  23    9:05   17.2   100   20.3   256    25.8   999.00    676.3    999.0    999000   999000   999.0    999000   999.0
  23    9:10   17.2   100   20.8   258    26.9   999.00    676.3    999.0    999000   999000   999.0    999000   999.0
  23    9:15   17.1   100   21.0   258    28.6   999.00    676.3    999.0    999000   999000   999.0    999000   999.0
  23    9:20   17.3   100   21.0   259    27.3   999.00    676.3    999.0    999000   999000   999.0    999000   999.0
  23    9:25   17.2   100   19.6   264    24.1   999.00    676.3    999.0    999000   999000   999.0    999000   999.0
  23    9:30   17.3   100   18.0   248    24.9   999.00    676.3    999.0    999000   999000   999.0    999000   999.0
  23    9:35   17.3   100   19.7   258    26.9   999.00    676.3    999.0    999000   999000   999.0    999000   999.0
  23    9:40   17.4   100   19.0   251    27.7   999.00    676.3    999.0    999000   999000   999.0    999000   999.0
  23    9:45   17.4   100   17.6   246    23.2   999.00    676.3    999.0    999000   999000   999.0    999000   999.0
  23    9:50   17.5   100   17.6   235    30.8   999.00    676.2    999.0    999000   999000   999.0    999000   999.0
  23    9:55   17.5   100   18.6   232    27.5   999.00    676.2    999.0    999000   999000   999.0    999000   999.0
  23   10:00   17.5   100   21.1   236    27.5   999.00    676.1    999.0    999000   999000   999.0    999000   999.0
  23   10:05   17.6   100   18.4   235    22.8   999.00    676.2    999.0    999000   999000   999.0    999000   999.0
  23   10:10   17.6   100   18.7   228    26.2   999.00    676.3    999.0    999000   999000   999.0    999000   999.0
  23   10:15   17.7   100   19.1   223    28.6   999.00    676.3    999.0    999000   999000   999.0    999000   999.0
  23   10:20   17.7   100   17.9   222    29.5   999.00    676.2    999.0    999000   999000   999.0    999000   999.0
  23   10:25   17.7   100   17.8   225    27.9   999.00    676.1    999.0    999000   999000   999.0    999000   999.0
  23   10:30   17.7   100   19.6   225    26.2   999.00    676.1    999.0    999000   999000   999.0    999000   999.0
  23   10:35   17.8   100   20.5   226    28.0   999.00    676.1    999.0    999000   999000   999.0    999000   999.0
  23   10:40   17.8   100   17.8   227    23.4   999.00    676.1    999.0    999000   999000   999.0    999000   999.0
  23   10:45   17.9   100   20.4   231    27.7   999.00    676.0    999.0    999000   999000   999.0    999000   999.0
  23   10:50   17.9   100   18.3   228    23.4   999.00    676.0    999.0    999000   999000   999.0    999000   999.0
  23   10:55   17.8   100   20.5   225    27.7   999.00    675.8    999.0    999000   999000   999.0    999000   999.0
  23   11:00   17.8   100   20.9   221    27.7   999.00    675.8    999.0    999000   999000   999.0    999000   999.0
  23   11:05   17.9   100   20.9   223    31.8   999.00    675.8    999.0    999000   999000   999.0    999000   999.0
  23   11:10   17.8   100   17.3   225    22.5   999.00    675.8    999.0    999000   999000   999.0    999000   999.0
  23   11:15   17.8   100   19.7   232    28.0   999.00    675.6    999.0    999000   999000   999.0    999000   999.0
  23   11:20   17.9   100   23.7   230    31.0   999.00    675.5    999.0    999000   999000   999.0    999000   999.0
  23   11:25   17.9   100   19.8   235    27.5   999.00    675.5    999.0    999000   999000   999.0    999000   999.0
  23   11:30   17.9   100   16.5   236    21.5   999.00    675.5    999.0    999000   999000   999.0    999000   999.0
  23   11:35   18.1   100   18.9   239    27.3   999.00    675.4    999.0    999000   999000   999.0    999000   999.0
  23   11:40   18.3   100   16.2   238    22.8   999.00    675.3    999.0    999000   999000   999.0    999000   999.0
  23   11:45   18.5   100   19.0   239    23.4   999.00    675.2    999.0    999000   999000   999.0    999000   999.0
  23   11:50   18.6   100   18.2   242    24.1   999.00    675.1    999.0    999000   999000   999.0    999000   999.0
  23   11:55   18.6   100   19.5   249    24.1   999.00    675.0    999.0    999000   999000   999.0    999000   999.0
  23   12:00   18.6   100   21.1   250    27.7   999.00    674.9    999.0    999000   999000   999.0    999000   999.0
  23   12:05   18.6   100   19.4   256    26.5   999.00    674.9    999.0    999000   999000   999.0    999000   999.0
  23   12:10   18.5   100   20.3   250    30.3   999.00    674.8    999.0    999000   999000   999.0    999000   999.0
  23   12:15   18.4   100   18.1   245    29.0   999.00    674.8    999.0    999000   999000   999.0    999000   999.0
  23   12:20   18.4   100   17.3   240    27.1   999.00    674.8    999.0    999000   999000   999.0    999000   999.0
  23   12:25   18.3   100   19.7   228    25.6   999.00    674.8    999.0    999000   999000   999.0    999000   999.0
  23   12:30   18.3   100   17.1   230    26.5   999.00    674.7    999.0    999000   999000   999.0    999000   999.0
  23   12:35   18.3   100   16.4   233    25.4   999.00    674.7    999.0    999000   999000   999.0    999000   999.0
  23   12:40   18.4   100   17.1   238    23.0   999.00    674.6    999.0    999000   999000   999.0    999000   999.0
  23   12:45   18.5   100   18.1   243    26.4   999.00    674.5    999.0    999000   999000   999.0    999000   999.0
  23   12:50   18.6   100   14.9   245    21.1   999.00    674.4    999.0    999000   999000   999.0    999000   999.0
  23   12:55   18.9   100   14.7   245    19.5   999.00    674.3    999.0    999000   999000   999.0    999000   999.0
  23   13:00   19.1   100   11.1   246    18.2   999.00    674.2    999.0    999000   999000   999.0    999000   999.0
  23   13:05   19.3   100   11.7   246    14.8   999.00    674.2    999.0    999000   999000   999.0    999000   999.0
  23   13:10   19.6   100   14.0   245    18.9   999.00    674.2    999.0    999000   999000   999.0    999000   999.0
  23   13:15   19.9   100    9.9   245    15.4   999.00    674.3    999.0    999000   999000   999.0    999000   999.0
  23   13:20   20.0   100   11.2   244    15.0   999.00    674.2    999.0    999000   999000   999.0    999000   999.0
  23   13:25   20.1   100   11.3   241    15.2   999.00    674.3    999.0    999000   999000   999.0    999000   999.0
  23   13:30   20.2   100   12.1   234    19.5   999.00    674.1    999.0    999000   999000   999.0    999000   999.0
  23   13:35   20.2   100   12.7   216    24.0   999.00    674.0    999.0    999000   999000   999.0    999000   999.0
  23   13:40   20.0   100   13.6   204    21.5   999.00    673.9    999.0    999000   999000   999.0    999000   999.0
  23   13:45   19.9   100   10.6   210    23.2   999.00    673.9    999.0    999000   999000   999.0    999000   999.0
  23   13:50   20.1   100   12.2   212    17.8   999.00    673.8    999.0    999000   999000   999.0    999000   999.0
  23   13:55   20.4   100   13.2   211    20.2   999.00    673.7    999.0    999000   999000   999.0    999000   999.0
  23   14:00   20.6   100   12.0   210    19.7   999.00    673.7    999.0    999000   999000   999.0    999000   999.0
  23   14:05   20.8   100   16.3   218    21.9   999.00    673.8    999.0    999000   999000   999.0    999000   999.0
  23   14:10   20.8   100   11.1   221    14.8   999.00    673.8    999.0    999000   999000   999.0    999000   999.0
  23   14:15   20.9   100   10.2   221    16.5   999.00    673.8    999.0    999000   999000   999.0    999000   999.0
  23   14:20   20.8   100   14.9   227    23.2   999.00    673.9    999.0    999000   999000   999.0    999000   999.0
  23   14:25   20.6   100   10.7   230    14.6   999.00    673.9    999.0    999000   999000   999.0    999000   999.0
  23   14:30   20.7   100    7.0   230    14.4   999.00    673.9    999.0    999000   999000   999.0    999000   999.0
  23   14:35   20.7   100    3.8   230    10.2   999.00    673.7    999.0    999000   999000   999.0    999000   999.0
  23   14:40   20.7   100    4.6   230    11.1   999.00    673.8    999.0    999000   999000   999.0    999000   999.0
  23   14:45   20.7   100    7.3   230    15.0   999.00    673.8    999.0    999000   999000   999.0    999000   999.0
  23   14:50   20.7   100    5.4   230    10.2   999.00    673.8    999.0    999000   999000   999.0    999000   999.0
  23   14:55   20.7   100    4.1   230    10.9   999.00    673.8    999.0    999000   999000   999.0    999000   999.0
  23   15:00   20.7   100    7.5   230    12.6   999.00    673.7    999.0    999000   999000   999.0    999000   999.0
  23   15:05   20.7   100    9.6   232    13.3   999.00    673.7    999.0    999000   999000   999.0    999000   999.0
  23   15:10   20.6   100   12.0   233    16.9   999.00    673.6    999.0    999000   999000   999.0    999000   999.0
  23   15:15   20.6   100    6.2   234    13.2   999.00    673.6    999.0    999000   999000   999.0    999000   999.0
  23   15:20   20.6   100    2.0   234     3.1   999.00    673.5    999.0    999000   999000   999.0    999000   999.0
  23   15:25   20.6   100    4.5   234    10.2   999.00    673.6    999.0    999000   999000   999.0    999000   999.0
  23   15:30   20.7   100    6.1   235    12.4   999.00    673.6    999.0    999000   999000   999.0    999000   999.0
  23   15:35   20.8   100    2.8   235     8.3   999.00    673.5    999.0    999000   999000   999.0    999000   999.0
  23   15:40   20.7   100    2.6   227     9.2   999.00    673.5    999.0    999000   999000   999.0    999000   999.0
  23   15:45   20.7   100    6.7   212    13.3   999.00    673.5    999.0    999000   999000   999.0    999000   999.0
  23   15:50   20.5   100    2.3   202     5.9   999.00    673.4    999.0    999000   999000   999.0    999000   999.0
  23   15:55   20.3   100    2.4   201     5.2   999.00    673.3    999.0    999000   999000   999.0    999000   999.0
  23   16:00   20.1   100    3.2   200    12.4   999.00    673.3    999.0    999000   999000   999.0    999000   999.0
  23   16:05   19.8   100    7.5   181    12.2   999.00    673.2    999.0    999000   999000   999.0    999000   999.0
  23   16:10   19.4   100    9.1   152    14.8   999.00    673.3    999.0    999000   999000   999.0    999000   999.0
  23   16:15   19.2   100   10.2   154    16.7   999.00    673.4    999.0    999000   999000   999.0    999000   999.0
  23   16:20   19.1   100    6.7   157    13.2   999.00    673.4    999.0    999000   999000   999.0    999000   999.0
  23   16:25   19.0   100    3.5   153    11.1   999.00    673.3    999.0    999000   999000   999.0    999000   999.0
  23   16:30   19.0   100    8.2   152    14.8   999.00    673.2    999.0    999000   999000   999.0    999000   999.0
  23   16:35   18.9   100    8.9   156    16.1   999.00    673.1    999.0    999000   999000   999.0    999000   999.0
  23   16:40   18.8   100    6.9   150    14.1   999.00    673.1    999.0    999000   999000   999.0    999000   999.0
  23   16:45   18.7   100   12.0   147    20.8   999.00    673.1    999.0    999000   999000   999.0    999000   999.0
  23   16:50   18.6   100   14.1   154    20.8   999.00    673.2    999.0    999000   999000   999.0    999000   999.0
  23   16:55   18.5   100   13.3   158    21.0   999.00    673.2    999.0    999000   999000   999.0    999000   999.0
  23   17:00   18.4   100   11.5   147    17.6   999.00    673.0    999.0    999000   999000   999.0    999000   999.0
  23   17:05   18.4   100   15.5   163    20.4   999.00    673.0    999.0    999000   999000   999.0    999000   999.0
  23   17:10   18.3   100   15.2   161    20.8   999.00    672.9    999.0    999000   999000   999.0    999000   999.0
  23   17:15   18.2   100   13.4   168    20.6   999.00    673.0    999.0    999000   999000   999.0    999000   999.0
  23   17:20   18.2   100   15.4   258    24.7   999.00    673.1    999.0    999000   999000   999.0    999000   999.0
  23   17:25   18.1   100   23.6   296    31.0   999.00    672.9    999.0    999000   999000   999.0    999000   999.0
  23   17:30   17.6   100   19.5   291    30.3   999.00    673.0    999.0    999000   999000   999.0    999000   999.0
  23   17:35   16.8   100   20.5   298    27.3   999.00    672.9    999.0    999000   999000   999.0    999000   999.0
  23   17:40   15.6    99   21.2   291    32.7   999.00    673.1    999.0    999000   999000   999.0    999000   999.0
  23   17:45   15.0    99   16.6   296    24.9   999.00    673.3    999.0    999000   999000   999.0    999000   999.0
  23   17:50   14.6    99   17.3   290    21.5   999.00    673.4    999.0    999000   999000   999.0    999000   999.0

Return to DRI Storm Peak Lab. graphs page.


Western Regional Climate Center,wrcc@dri.edu